• Join FlightAware (Why Join?)
  • Login
  • US Flag 
12:13AM EDT


 

Airport Tracker/Info


-or-


 

Live Flight TrackerFlight Track Log ✈ AAL2360 ✈ 07-Jun-2013 ✈ KDFW - KORD

Flight Track Log - Related Links

Times and Time Zones

All times are in EDT time to prevent confusion due to time zone crossing. See the AAL2360 flight status page for this flight to view local times or setup timezone preferences in your user account.

Time Position Orientation Groundspeed Altitude Reporting Facility
EDT Latitude Longitude Course Direction KTS MPH feet Rate Location/Type
03:44PM 32.9167 -97.0333 North 176 203 1,000  Level Dallas / Fort Worth TRACON
03:45PM 32.9333 -97.0333 360° North 173 199 2,400 2,220 Climbing Dallas / Fort Worth TRACON
03:47PM 32.8377 -96.8025 10° North  Level FlightAware Approximate
03:47PM 33.0436 -97.0292 North 238 274 6,600  Level Fort Worth Center
03:48PM 32.9517 -96.8000 North  Level FlightAware Approximate
03:48PM 33.1167 -97.0067 14° North 238 274 9,500  Level Fort Worth Center
03:49PM 33.0659 -96.8000 North  Level FlightAware Approximate
03:49PM 33.1811 -96.9717 24° Northeast 258 297 11,100  Level Fort Worth Center
03:50PM 33.2769 -96.9214 24° Northeast 315 362 13,100 2,160 Climbing Fort Worth Center
03:51PM 33.3708 -96.8711 24° Northeast 349 402 15,500 2,460 Climbing Fort Worth Center
03:52PM 33.4664 -96.8158 26° Northeast 368 423 18,100 2,100 Climbing Fort Worth Center
03:53PM 33.5622 -96.7553 28° Northeast 378 435 19,800 1,800 Climbing Fort Worth Center
03:54PM 33.6619 -96.6922 28° Northeast 392 451 21,800 1,800 Climbing Fort Worth Center
03:55PM 33.7639 -96.6239 29° Northeast 404 465 23,500 1,560 Climbing Fort Worth Center
03:56PM 33.8594 -96.5631 28° Northeast 412 474 25,000 1,500 Climbing Fort Worth Center
03:57PM 33.9675 -96.4944 28° Northeast 417 480 26,600 1,500 Climbing Fort Worth Center
03:58PM 34.0714 -96.4231 30° Northeast 422 486 28,000 1,380 Climbing Fort Worth Center
03:59PM 34.1792 -96.3339 34° Northeast 422 486 29,400 1,500 Climbing Fort Worth Center
04:00PM 34.2847 -96.2497 33° Northeast 434 499 31,100 1,380 Climbing Fort Worth Center
04:01PM 34.3861 -96.1628 35° Northeast 440 506 32,200 900 Climbing Fort Worth Center
04:02PM 34.4875 -96.0808 34° Northeast 440 506 33,000 360 Climbing Fort Worth Center
04:03PM 34.5931 -95.9958 34° Northeast 440 506 33,000  Level Fort Worth Center
04:04PM 34.6964 -95.9108 34° Northeast 446 513 33,000  Level Fort Worth Center
04:05PM 34.7997 -95.8231 35° Northeast 451 519 33,000  Level Fort Worth Center
04:06PM 34.8944 -95.7403 36° Northeast 458 527 33,000  Level Fort Worth Center
04:07PM 34.9956 -95.6494 36° Northeast 458 527 33,000  Level Fort Worth Center
04:08PM 35.0922 -95.5511 40° Northeast 453 521 33,000  Level Fort Worth Center
04:09PM 35.1908 -95.4625 36° Northeast 448 516 33,000  Level Fort Worth Center
04:10PM 35.2978 -95.3608 38° Northeast 443 510 33,000  Level Fort Worth Center
04:10PM 35.3142 -95.3494 30° Northeast 436 502 33,000  Level Memphis Center
04:11PM 35.4097 -95.2558 39° Northeast 431 496 33,000  Level Memphis Center
04:12PM 35.5072 -95.1619 38° Northeast 431 496 33,000  Level Memphis Center
04:13PM 35.6025 -95.0706 38° Northeast 431 496 33,000  Level Memphis Center
04:14PM 35.6775 -94.9956 39° Northeast 438 504 33,000  Level Kansas City Center
04:15PM 35.7750 -94.9028 38° Northeast 442 509 33,000  Level Kansas City Center
04:16PM 35.8603 -94.7936 46° Northeast 447 514 33,000  Level Kansas City Center
04:16PM 35.8806 -94.7686 45° Northeast 442 509 33,000  Level Memphis Center
04:17PM 35.9636 -94.6578 47° Northeast 442 509 33,000  Level Memphis Center
04:18PM 36.0467 -94.5467 47° Northeast 442 509 33,000 -60 Level Memphis Center
04:19PM 36.1336 -94.4353 46° Northeast 442 509 32,900  Descending Memphis Center
04:20PM 36.2283 -94.3547 34° Northeast 437 503 33,000  Climbing Kansas City Center
04:21PM 36.3272 -94.2672 35° Northeast 438 504 33,000  Level Kansas City Center
04:22PM 36.4239 -94.1797 36° Northeast 433 498 33,000  Level Kansas City Center
04:23PM 36.5236 -94.0906 36° Northeast 438 504 33,000  Level Kansas City Center
04:24PM 36.6214 -94.0031 36° Northeast 435 501 33,000  Level Kansas City Center
04:25PM 36.7203 -93.9144 36° Northeast 437 503 33,000  Level Kansas City Center
04:26PM 36.8397 -93.8081 35° Northeast 439 505 33,000  Level Kansas City Center
04:27PM 36.9322 -93.7211 37° Northeast 433 498 33,000  Level Kansas City Center
04:28PM 37.0317 -93.6308 36° Northeast 437 503 33,000  Level Kansas City Center
04:29PM 37.1311 -93.5394 36° Northeast 441 507 33,000  Level Kansas City Center
04:30PM 37.2314 -93.4489 36° Northeast 442 509 33,000  Level Kansas City Center
04:32PM 37.3638 -93.3204 37° Northeast  Level FlightAware Approximate
04:32PM 37.4514 -93.2483 37° Northeast 442 509 33,000  Level Kansas City Center
04:33PM 37.5506 -93.1556 37° Northeast 441 507 33,000  Level Kansas City Center
04:34PM 37.6531 -93.0617 36° Northeast 448 516 33,000  Level Kansas City Center
04:35PM 37.7528 -92.9672 37° Northeast 447 514 33,000  Level Kansas City Center
04:36PM 37.8539 -92.8733 36° Northeast 447 514 33,000  Level Kansas City Center
04:37PM 37.9558 -92.7786 36° Northeast 449 517 33,000  Level Kansas City Center
04:38PM 38.0628 -92.6781 37° Northeast 449 517 33,000  Level Kansas City Center
04:39PM 38.1639 -92.5828 37° Northeast 452 520 33,000  Level Kansas City Center
04:40PM 38.2828 -92.4700 37° Northeast 450 518 33,000  Level Kansas City Center
04:41PM 38.3831 -92.3750 37° Northeast 447 514 33,000  Level Kansas City Center
04:42PM 38.4836 -92.2786 37° Northeast 447 514 33,000  Level Kansas City Center
04:43PM 38.5850 -92.1806 37° Northeast 450 518 33,000  Level Kansas City Center
04:45PM 38.6867 -92.0836 37° Northeast 452 520 33,000  Level Kansas City Center
04:46PM 38.7881 -91.9856 37° Northeast 454 522 33,000  Level Kansas City Center
04:47PM 38.8892 -91.8872 37° Northeast 454 522 33,000  Level Kansas City Center
04:48PM 39.0106 -91.7700 37° Northeast 455 524 33,000  Level Kansas City Center
04:49PM 39.1069 -91.6775 37° Northeast 449 517 33,000  Level Kansas City Center
04:50PM 39.2050 -91.5797 38° Northeast 446 513 33,000  Level Kansas City Center
04:51PM 39.3025 -91.4847 37° Northeast 442 509 33,000  Level Kansas City Center
04:52PM 39.4000 -91.3894 37° Northeast 440 506 33,000  Level Kansas City Center
04:53PM 39.4997 -91.2908 37° Northeast 444 511 33,000  Level Kansas City Center
04:54PM 39.6017 -91.1883 38° Northeast 454 522 33,000  Level Kansas City Center
04:55PM 39.7256 -91.0644 38° Northeast 463 533 33,000  Level Kansas City Center
04:56PM 39.8244 -90.9647 38° Northeast 463 533 33,000  Level Kansas City Center
04:57PM 39.9281 -90.8622 37° Northeast 466 536 33,000  Level Kansas City Center
04:58PM 40.0297 -90.7589 38° Northeast 464 534 33,000  Level Kansas City Center
04:59PM 40.1317 -90.6556 38° Northeast 464 534 33,000  Level Kansas City Center
05:00PM 40.2372 -90.5500 37° Northeast 471 542 33,000  Level Kansas City Center
05:01PM 40.3614 -90.4197 39° Northeast 474 545 33,000  Level Kansas City Center
05:02PM 40.4253 -90.3558 37° Northeast 476 548 33,000 -600 Level Chicago Center
05:03PM 40.5356 -90.2408 38° Northeast 479 551 32,000 -1,080 Descending Chicago Center
05:04PM 40.6408 -90.1403 36° Northeast 468 539 30,800 -1,320 Descending Chicago Center
05:05PM 40.7903 -90.1311 North 443 510 29,300 -1,260 Descending Chicago Center
05:06PM 40.8892 -90.0517 31° Northeast 451 519 28,200 -1,260 Descending Chicago Center
05:07PM 40.9667 -89.9233 51° Northeast 446 513 26,700 -1,440 Descending Chicago Center
05:08PM 41.0428 -89.7925 52° Northeast 434 499 25,300 -1,320 Descending Chicago Center
05:09PM 41.1150 -89.6678 52° Northeast 426 490 24,000 -1,380 Descending Chicago Center
05:10PM 41.1814 -89.5414 55° Northeast 418 481 22,500 -1,680 Descending Chicago Center
05:11PM 41.2328 -89.4078 63° Northeast 406 467 20,600 -1,980 Descending Chicago Center
05:12PM 41.2853 -89.2800 61° Northeast 395 455 18,500 -2,100 Descending Chicago Center
05:13PM 41.3397 -89.1425 62° Northeast 380 437 16,300 -1,860 Descending Chicago Center
05:14PM 41.3872 -89.0239 62° Northeast 366 421 14,700 -1,800 Descending Chicago Center
05:15PM 41.4411 -88.8864 62° Northeast 351 404 12,700 -1,320 Descending Chicago Center
05:16PM 41.5028 -88.8194 39° Northeast 307 353 12,000 -420 Descending Chicago Center
05:17PM 41.5714 -88.7731 27° Northeast 299 344 11,900 -540 Descending Chicago Center
05:18PM 41.6186 -88.6792 56° Northeast 302 348 11,000 -480 Descending Chicago Center
05:19PM 41.6633 -88.5822 58° Northeast 304 350 11,000 -300 Level Chicago Center
05:20PM 41.7089 -88.4897 57° Northeast 300 345 10,400 -1,200 Descending Chicago Center
05:21PM 41.7606 -88.3822 57° Northeast 287 330 8,500 -1,200 Descending Chicago Center
05:23PM 41.8156 -88.3208 40° Northeast 274 315 8,000 -300 Descending Chicago Center
05:24PM 41.8658 -88.3428 342° North 204 235 8,000 -300 Level Chicago Center
05:25PM 41.9050 -88.3750 329° Northwest 190 219 7,500 -840 Descending Chicago Center
05:26PM 41.9439 -88.3469 28° Northeast 201 231 6,300 -1,200 Descending Chicago Center
05:27PM 41.9606 -88.2878 69° East 172 198 5,100 -780 Descending Chicago Center
05:28PM 41.9675 -88.2100 83° East 178 205 4,800 -540 Descending Chicago Center
05:29PM 41.9681 -88.1486 89° East 169 194 4,000 -780 Descending Chicago Center